sensor_id;sensor_type;location;lat;lon;timestamp;P1;durP1;ratioP1;P2;durP2;ratioP2
48578;SDS011;34357;51.948;6.132;2024-03-17T00:00:19;24.95;;;9.90;;
48578;SDS011;34357;51.948;6.132;2024-03-17T00:02:48;21.10;;;10.30;;
48578;SDS011;34357;51.948;6.132;2024-03-17T00:05:14;22.48;;;8.82;;
48578;SDS011;34357;51.948;6.132;2024-03-17T00:07:40;16.85;;;7.72;;
48578;SDS011;34357;51.948;6.132;2024-03-17T00:10:06;17.73;;;6.57;;
48578;SDS011;34357;51.948;6.132;2024-03-17T00:12:32;12.90;;;5.97;;
48578;SDS011;34357;51.948;6.132;2024-03-17T00:14:58;13.38;;;5.65;;
48578;SDS011;34357;51.948;6.132;2024-03-17T00:17:24;12.90;;;5.63;;
48578;SDS011;34357;51.948;6.132;2024-03-17T00:19:50;11.57;;;5.55;;
48578;SDS011;34357;51.948;6.132;2024-03-17T00:22:16;10.75;;;4.60;;
48578;SDS011;34357;51.948;6.132;2024-03-17T00:24:44;11.57;;;4.60;;
48578;SDS011;34357;51.948;6.132;2024-03-17T00:27:10;12.35;;;5.15;;
48578;SDS011;34357;51.948;6.132;2024-03-17T00:29:37;12.68;;;4.88;;
48578;SDS011;34357;51.948;6.132;2024-03-17T00:32:03;8.98;;;4.20;;
48578;SDS011;34357;51.948;6.132;2024-03-17T00:34:30;10.15;;;4.85;;
48578;SDS011;34357;51.948;6.132;2024-03-17T00:36:55;11.18;;;4.32;;
48578;SDS011;34357;51.948;6.132;2024-03-17T00:39:21;15.35;;;4.75;;
48578;SDS011;34357;51.948;6.132;2024-03-17T00:41:47;14.88;;;4.63;;
48578;SDS011;34357;51.948;6.132;2024-03-17T00:44:14;10.15;;;4.40;;
48578;SDS011;34357;51.948;6.132;2024-03-17T00:46:40;11.88;;;4.10;;
48578;SDS011;34357;51.948;6.132;2024-03-17T00:49:07;19.85;;;4.25;;
48578;SDS011;34357;51.948;6.132;2024-03-17T00:51:34;11.43;;;4.47;;
48578;SDS011;34357;51.948;6.132;2024-03-17T00:54:00;17.30;;;5.03;;
48578;SDS011;34357;51.948;6.132;2024-03-17T00:56:25;13.88;;;4.40;;
48578;SDS011;34357;51.948;6.132;2024-03-17T00:58:51;13.38;;;4.07;;
48578;SDS011;34357;51.948;6.132;2024-03-17T01:01:17;10.98;;;4.28;;
48578;SDS011;34357;51.948;6.132;2024-03-17T01:03:44;12.18;;;3.95;;
48578;SDS011;34357;51.948;6.132;2024-03-17T01:06:11;9.95;;;4.47;;
48578;SDS011;34357;51.948;6.132;2024-03-17T01:08:36;13.85;;;4.22;;
48578;SDS011;34357;51.948;6.132;2024-03-17T01:11:02;10.25;;;4.40;;
48578;SDS011;34357;51.948;6.132;2024-03-17T01:13:28;10.23;;;3.67;;
48578;SDS011;34357;51.948;6.132;2024-03-17T01:15:54;10.68;;;4.15;;
48578;SDS011;34357;51.948;6.132;2024-03-17T01:18:19;12.13;;;4.10;;
48578;SDS011;34357;51.948;6.132;2024-03-17T01:20:45;12.10;;;4.63;;
48578;SDS011;34357;51.948;6.132;2024-03-17T01:23:11;9.82;;;4.20;;
48578;SDS011;34357;51.948;6.132;2024-03-17T01:25:38;13.02;;;4.60;;
48578;SDS011;34357;51.948;6.132;2024-03-17T01:28:04;11.70;;;4.30;;
48578;SDS011;34357;51.948;6.132;2024-03-17T01:30:30;9.68;;;4.47;;
48578;SDS011;34357;51.948;6.132;2024-03-17T01:32:57;10.43;;;4.10;;
48578;SDS011;34357;51.948;6.132;2024-03-17T01:35:24;11.93;;;4.22;;
48578;SDS011;34357;51.948;6.132;2024-03-17T01:37:51;11.52;;;4.68;;
48578;SDS011;34357;51.948;6.132;2024-03-17T01:40:16;7.38;;;4.60;;
48578;SDS011;34357;51.948;6.132;2024-03-17T01:42:42;7.38;;;4.35;;
48578;SDS011;34357;51.948;6.132;2024-03-17T01:47:43;9.88;;;4.35;;
48578;SDS011;34357;51.948;6.132;2024-03-17T01:50:09;12.52;;;5.18;;
48578;SDS011;34357;51.948;6.132;2024-03-17T01:52:37;15.98;;;5.18;;
48578;SDS011;34357;51.948;6.132;2024-03-17T01:55:03;12.60;;;5.15;;
48578;SDS011;34357;51.948;6.132;2024-03-17T01:57:29;11.35;;;4.60;;
48578;SDS011;34357;51.948;6.132;2024-03-17T01:59:56;11.00;;;5.35;;
48578;SDS011;34357;51.948;6.132;2024-03-17T02:02:23;9.85;;;4.70;;
48578;SDS011;34357;51.948;6.132;2024-03-17T02:04:49;11.02;;;5.18;;
48578;SDS011;34357;51.948;6.132;2024-03-17T02:07:15;13.48;;;5.43;;
48578;SDS011;34357;51.948;6.132;2024-03-17T02:09:41;9.45;;;4.70;;
48578;SDS011;34357;51.948;6.132;2024-03-17T02:12:08;12.48;;;5.35;;
48578;SDS011;34357;51.948;6.132;2024-03-17T02:14:34;15.15;;;5.47;;
48578;SDS011;34357;51.948;6.132;2024-03-17T02:17:00;15.32;;;5.88;;
48578;SDS011;34357;51.948;6.132;2024-03-17T02:19:27;18.52;;;5.70;;
48578;SDS011;34357;51.948;6.132;2024-03-17T02:21:53;12.18;;;5.28;;
48578;SDS011;34357;51.948;6.132;2024-03-17T02:24:18;15.40;;;6.20;;
48578;SDS011;34357;51.948;6.132;2024-03-17T02:26:44;14.60;;;5.55;;
48578;SDS011;34357;51.948;6.132;2024-03-17T02:29:10;14.13;;;6.47;;
48578;SDS011;34357;51.948;6.132;2024-03-17T02:31:35;13.75;;;6.38;;
48578;SDS011;34357;51.948;6.132;2024-03-17T02:34:01;11.07;;;6.20;;
48578;SDS011;34357;51.948;6.132;2024-03-17T02:36:27;14.30;;;6.65;;
48578;SDS011;34357;51.948;6.132;2024-03-17T02:38:53;13.95;;;6.47;;
48578;SDS011;34357;51.948;6.132;2024-03-17T02:41:37;15.57;;;6.82;;
48578;SDS011;34357;51.948;6.132;2024-03-17T02:44:06;13.30;;;6.25;;
48578;SDS011;34357;51.948;6.132;2024-03-17T02:46:32;13.32;;;7.20;;
48578;SDS011;34357;51.948;6.132;2024-03-17T02:48:59;14.80;;;7.45;;
48578;SDS011;34357;51.948;6.132;2024-03-17T02:51:25;16.98;;;8.10;;
48578;SDS011;34357;51.948;6.132;2024-03-17T02:53:50;14.82;;;8.75;;
48578;SDS011;34357;51.948;6.132;2024-03-17T02:56:16;14.18;;;8.90;;
48578;SDS011;34357;51.948;6.132;2024-03-17T02:58:46;15.52;;;8.18;;
48578;SDS011;34357;51.948;6.132;2024-03-17T03:01:13;13.30;;;7.43;;
48578;SDS011;34357;51.948;6.132;2024-03-17T03:03:40;15.60;;;7.78;;
48578;SDS011;34357;51.948;6.132;2024-03-17T03:06:06;20.70;;;8.57;;
48578;SDS011;34357;51.948;6.132;2024-03-17T03:08:36;14.05;;;7.97;;
48578;SDS011;34357;51.948;6.132;2024-03-17T03:11:04;13.75;;;8.10;;
48578;SDS011;34357;51.948;6.132;2024-03-17T03:13:31;17.20;;;7.95;;
48578;SDS011;34357;51.948;6.132;2024-03-17T03:15:57;14.45;;;7.78;;
48578;SDS011;34357;51.948;6.132;2024-03-17T03:18:22;12.43;;;7.10;;
48578;SDS011;34357;51.948;6.132;2024-03-17T03:20:52;14.38;;;8.05;;
48578;SDS011;34357;51.948;6.132;2024-03-17T03:23:20;18.08;;;8.35;;
48578;SDS011;34357;51.948;6.132;2024-03-17T03:25:46;17.27;;;8.75;;
48578;SDS011;34357;51.948;6.132;2024-03-17T03:28:13;16.08;;;8.30;;
48578;SDS011;34357;51.948;6.132;2024-03-17T03:30:38;16.05;;;7.93;;
48578;SDS011;34357;51.948;6.132;2024-03-17T03:33:04;18.15;;;8.95;;
48578;SDS011;34357;51.948;6.132;2024-03-17T03:35:30;13.98;;;7.53;;
48578;SDS011;34357;51.948;6.132;2024-03-17T03:37:56;13.98;;;8.15;;
48578;SDS011;34357;51.948;6.132;2024-03-17T03:40:22;15.13;;;8.65;;
48578;SDS011;34357;51.948;6.132;2024-03-17T03:42:50;17.75;;;9.20;;
48578;SDS011;34357;51.948;6.132;2024-03-17T03:45:15;15.13;;;8.75;;
48578;SDS011;34357;51.948;6.132;2024-03-17T03:47:41;14.85;;;8.55;;
48578;SDS011;34357;51.948;6.132;2024-03-17T03:50:11;14.35;;;8.77;;
48578;SDS011;34357;51.948;6.132;2024-03-17T03:52:41;18.45;;;10.00;;
48578;SDS011;34357;51.948;6.132;2024-03-17T03:55:07;19.27;;;9.93;;
48578;SDS011;34357;51.948;6.132;2024-03-17T03:57:40;22.05;;;10.20;;
48578;SDS011;34357;51.948;6.132;2024-03-17T04:00:16;19.20;;;10.07;;
48578;SDS011;34357;51.948;6.132;2024-03-17T04:02:46;18.60;;;10.05;;
48578;SDS011;34357;51.948;6.132;2024-03-17T04:05:13;17.23;;;9.63;;
48578;SDS011;34357;51.948;6.132;2024-03-17T04:07:39;18.17;;;9.70;;
48578;SDS011;34357;51.948;6.132;2024-03-17T04:10:05;21.02;;;10.40;;
48578;SDS011;34357;51.948;6.132;2024-03-17T04:12:31;19.38;;;10.38;;
48578;SDS011;34357;51.948;6.132;2024-03-17T04:14:58;16.42;;;10.13;;
48578;SDS011;34357;51.948;6.132;2024-03-17T04:17:24;17.08;;;9.85;;
48578;SDS011;34357;51.948;6.132;2024-03-17T04:19:50;16.52;;;9.95;;
48578;SDS011;34357;51.948;6.132;2024-03-17T04:22:17;14.68;;;10.32;;
48578;SDS011;34357;51.948;6.132;2024-03-17T04:24:44;14.27;;;10.13;;
48578;SDS011;34357;51.948;6.132;2024-03-17T04:27:10;22.15;;;11.35;;
48578;SDS011;34357;51.948;6.132;2024-03-17T04:29:37;18.67;;;11.52;;
48578;SDS011;34357;51.948;6.132;2024-03-17T04:32:02;15.40;;;10.73;;
48578;SDS011;34357;51.948;6.132;2024-03-17T04:34:30;16.88;;;11.27;;
48578;SDS011;34357;51.948;6.132;2024-03-17T04:36:56;14.68;;;10.68;;
48578;SDS011;34357;51.948;6.132;2024-03-17T04:39:22;17.08;;;11.30;;
48578;SDS011;34357;51.948;6.132;2024-03-17T04:41:49;18.85;;;12.00;;
48578;SDS011;34357;51.948;6.132;2024-03-17T04:44:15;18.58;;;12.13;;
48578;SDS011;34357;51.948;6.132;2024-03-17T04:46:41;23.17;;;12.00;;
48578;SDS011;34357;51.948;6.132;2024-03-17T04:49:07;23.40;;;13.82;;
48578;SDS011;34357;51.948;6.132;2024-03-17T04:51:33;18.92;;;12.85;;
48578;SDS011;34357;51.948;6.132;2024-03-17T04:54:00;22.48;;;13.18;;
48578;SDS011;34357;51.948;6.132;2024-03-17T04:56:28;22.02;;;12.45;;
48578;SDS011;34357;51.948;6.132;2024-03-17T04:58:53;20.95;;;13.80;;
48578;SDS011;34357;51.948;6.132;2024-03-17T05:01:19;19.38;;;12.60;;
48578;SDS011;34357;51.948;6.132;2024-03-17T05:03:45;27.20;;;14.25;;
48578;SDS011;34357;51.948;6.132;2024-03-17T05:06:11;21.02;;;14.20;;
48578;SDS011;34357;51.948;6.132;2024-03-17T05:08:36;24.25;;;14.23;;
48578;SDS011;34357;51.948;6.132;2024-03-17T05:11:03;21.85;;;14.90;;
48578;SDS011;34357;51.948;6.132;2024-03-17T05:13:33;24.13;;;16.45;;
48578;SDS011;34357;51.948;6.132;2024-03-17T05:16:00;23.05;;;16.17;;
48578;SDS011;34357;51.948;6.132;2024-03-17T05:18:26;28.13;;;17.10;;
48578;SDS011;34357;51.948;6.132;2024-03-17T05:20:59;25.33;;;16.45;;
48578;SDS011;34357;51.948;6.132;2024-03-17T05:23:26;27.48;;;15.82;;
48578;SDS011;34357;51.948;6.132;2024-03-17T05:25:53;28.23;;;18.17;;
48578;SDS011;34357;51.948;6.132;2024-03-17T05:28:20;27.67;;;16.67;;
48578;SDS011;34357;51.948;6.132;2024-03-17T05:30:46;28.05;;;17.90;;
48578;SDS011;34357;51.948;6.132;2024-03-17T05:33:13;26.75;;;17.65;;
48578;SDS011;34357;51.948;6.132;2024-03-17T05:35:39;29.55;;;19.13;;
48578;SDS011;34357;51.948;6.132;2024-03-17T05:38:04;28.08;;;17.23;;
48578;SDS011;34357;51.948;6.132;2024-03-17T05:40:30;26.98;;;17.10;;
48578;SDS011;34357;51.948;6.132;2024-03-17T05:42:56;26.52;;;18.10;;
48578;SDS011;34357;51.948;6.132;2024-03-17T05:45:22;26.02;;;16.13;;
48578;SDS011;34357;51.948;6.132;2024-03-17T05:47:49;26.73;;;16.73;;
48578;SDS011;34357;51.948;6.132;2024-03-17T05:50:15;29.95;;;16.98;;
48578;SDS011;34357;51.948;6.132;2024-03-17T05:52:41;25.88;;;16.75;;
48578;SDS011;34357;51.948;6.132;2024-03-17T05:55:07;27.08;;;16.30;;
48578;SDS011;34357;51.948;6.132;2024-03-17T05:57:32;22.77;;;16.15;;
48578;SDS011;34357;51.948;6.132;2024-03-17T05:59:58;23.88;;;16.88;;
48578;SDS011;34357;51.948;6.132;2024-03-17T06:02:24;28.00;;;16.48;;
48578;SDS011;34357;51.948;6.132;2024-03-17T06:04:50;27.45;;;17.13;;
48578;SDS011;34357;51.948;6.132;2024-03-17T06:07:15;24.63;;;16.00;;
48578;SDS011;34357;51.948;6.132;2024-03-17T06:09:41;30.65;;;16.80;;
48578;SDS011;34357;51.948;6.132;2024-03-17T06:12:07;27.00;;;15.88;;
48578;SDS011;34357;51.948;6.132;2024-03-17T06:14:32;29.35;;;17.23;;
48578;SDS011;34357;51.948;6.132;2024-03-17T06:16:59;26.52;;;16.35;;
48578;SDS011;34357;51.948;6.132;2024-03-17T06:19:25;28.05;;;16.92;;
48578;SDS011;34357;51.948;6.132;2024-03-17T06:21:50;25.02;;;15.88;;
48578;SDS011;34357;51.948;6.132;2024-03-17T06:24:16;27.15;;;17.52;;
48578;SDS011;34357;51.948;6.132;2024-03-17T06:26:42;29.92;;;17.80;;
48578;SDS011;34357;51.948;6.132;2024-03-17T06:29:08;25.35;;;17.05;;
48578;SDS011;34357;51.948;6.132;2024-03-17T06:31:33;28.50;;;16.77;;
48578;SDS011;34357;51.948;6.132;2024-03-17T06:33:59;30.42;;;16.02;;
48578;SDS011;34357;51.948;6.132;2024-03-17T06:36:25;25.15;;;16.50;;
48578;SDS011;34357;51.948;6.132;2024-03-17T06:38:50;29.38;;;17.65;;
48578;SDS011;34357;51.948;6.132;2024-03-17T06:41:16;29.48;;;18.33;;
48578;SDS011;34357;51.948;6.132;2024-03-17T06:43:42;30.98;;;17.20;;
48578;SDS011;34357;51.948;6.132;2024-03-17T06:46:08;24.63;;;16.55;;
48578;SDS011;34357;51.948;6.132;2024-03-17T06:48:34;27.02;;;16.63;;
48578;SDS011;34357;51.948;6.132;2024-03-17T06:51:00;25.27;;;14.98;;
48578;SDS011;34357;51.948;6.132;2024-03-17T06:53:26;30.10;;;16.20;;
48578;SDS011;34357;51.948;6.132;2024-03-17T06:55:52;27.08;;;15.30;;
48578;SDS011;34357;51.948;6.132;2024-03-17T06:58:18;23.77;;;13.10;;
48578;SDS011;34357;51.948;6.132;2024-03-17T07:00:57;22.40;;;12.90;;
48578;SDS011;34357;51.948;6.132;2024-03-17T07:03:27;22.35;;;13.00;;
48578;SDS011;34357;51.948;6.132;2024-03-17T07:05:57;23.65;;;13.20;;
48578;SDS011;34357;51.948;6.132;2024-03-17T07:08:24;19.58;;;10.50;;
48578;SDS011;34357;51.948;6.132;2024-03-17T07:11:00;18.48;;;10.68;;
48578;SDS011;34357;51.948;6.132;2024-03-17T07:13:28;17.30;;;10.68;;
48578;SDS011;34357;51.948;6.132;2024-03-17T07:15:56;19.08;;;10.70;;
48578;SDS011;34357;51.948;6.132;2024-03-17T07:18:21;13.23;;;9.18;;
48578;SDS011;34357;51.948;6.132;2024-03-17T07:20:47;16.45;;;8.98;;
48578;SDS011;34357;51.948;6.132;2024-03-17T07:23:13;15.13;;;9.00;;
48578;SDS011;34357;51.948;6.132;2024-03-17T07:25:40;13.32;;;9.30;;
48578;SDS011;34357;51.948;6.132;2024-03-17T07:28:07;12.82;;;8.52;;
48578;SDS011;34357;51.948;6.132;2024-03-17T07:30:34;12.00;;;8.32;;
48578;SDS011;34357;51.948;6.132;2024-03-17T07:33:00;14.13;;;8.38;;
48578;SDS011;34357;51.948;6.132;2024-03-17T07:35:26;13.02;;;7.35;;
48578;SDS011;34357;51.948;6.132;2024-03-17T07:37:52;13.88;;;7.35;;
48578;SDS011;34357;51.948;6.132;2024-03-17T07:40:17;11.82;;;6.95;;
48578;SDS011;34357;51.948;6.132;2024-03-17T07:42:44;11.25;;;7.40;;
48578;SDS011;34357;51.948;6.132;2024-03-17T07:45:10;10.82;;;6.65;;
48578;SDS011;34357;51.948;6.132;2024-03-17T07:47:36;11.45;;;6.18;;
48578;SDS011;34357;51.948;6.132;2024-03-17T07:50:02;10.13;;;6.97;;
48578;SDS011;34357;51.948;6.132;2024-03-17T07:52:31;11.63;;;7.18;;
48578;SDS011;34357;51.948;6.132;2024-03-17T07:54:57;11.30;;;6.95;;
48578;SDS011;34357;51.948;6.132;2024-03-17T07:57:23;12.65;;;7.65;;
48578;SDS011;34357;51.948;6.132;2024-03-17T07:59:52;12.82;;;7.35;;
48578;SDS011;34357;51.948;6.132;2024-03-17T08:02:17;11.65;;;6.70;;
48578;SDS011;34357;51.948;6.132;2024-03-17T08:04:43;11.40;;;6.72;;
48578;SDS011;34357;51.948;6.132;2024-03-17T08:07:12;12.57;;;6.45;;
48578;SDS011;34357;51.948;6.132;2024-03-17T08:09:37;10.45;;;6.30;;
48578;SDS011;34357;51.948;6.132;2024-03-17T08:12:03;10.43;;;6.20;;
48578;SDS011;34357;51.948;6.132;2024-03-17T08:14:29;9.32;;;6.22;;
48578;SDS011;34357;51.948;6.132;2024-03-17T08:16:56;11.98;;;6.53;;
48578;SDS011;34357;51.948;6.132;2024-03-17T08:19:21;11.38;;;6.28;;
48578;SDS011;34357;51.948;6.132;2024-03-17T08:21:47;9.02;;;6.28;;
48578;SDS011;34357;51.948;6.132;2024-03-17T08:24:13;8.68;;;6.03;;
48578;SDS011;34357;51.948;6.132;2024-03-17T08:26:39;9.90;;;6.38;;
48578;SDS011;34357;51.948;6.132;2024-03-17T08:31:36;10.55;;;6.75;;
48578;SDS011;34357;51.948;6.132;2024-03-17T08:34:02;11.52;;;6.53;;
48578;SDS011;34357;51.948;6.132;2024-03-17T08:36:28;11.38;;;6.30;;
48578;SDS011;34357;51.948;6.132;2024-03-17T08:38:53;6.93;;;5.90;;
48578;SDS011;34357;51.948;6.132;2024-03-17T08:41:20;8.38;;;6.00;;
48578;SDS011;34357;51.948;6.132;2024-03-17T08:43:45;8.90;;;5.82;;
48578;SDS011;34357;51.948;6.132;2024-03-17T08:46:12;11.57;;;6.05;;
48578;SDS011;34357;51.948;6.132;2024-03-17T08:48:39;8.23;;;5.78;;
48578;SDS011;34357;51.948;6.132;2024-03-17T08:51:06;9.85;;;5.78;;
48578;SDS011;34357;51.948;6.132;2024-03-17T08:53:33;7.72;;;6.30;;
48578;SDS011;34357;51.948;6.132;2024-03-17T08:55:59;11.10;;;6.05;;
48578;SDS011;34357;51.948;6.132;2024-03-17T08:58:26;7.53;;;5.47;;
48578;SDS011;34357;51.948;6.132;2024-03-17T09:00:52;9.60;;;5.65;;
48578;SDS011;34357;51.948;6.132;2024-03-17T09:03:19;11.50;;;6.22;;
48578;SDS011;34357;51.948;6.132;2024-03-17T09:05:46;9.20;;;6.35;;
48578;SDS011;34357;51.948;6.132;2024-03-17T09:08:22;9.60;;;6.20;;
48578;SDS011;34357;51.948;6.132;2024-03-17T09:10:49;7.72;;;5.78;;
48578;SDS011;34357;51.948;6.132;2024-03-17T09:13:23;7.10;;;5.97;;
48578;SDS011;34357;51.948;6.132;2024-03-17T09:18:19;8.00;;;5.95;;
48578;SDS011;34357;51.948;6.132;2024-03-17T09:20:45;10.68;;;5.80;;
48578;SDS011;34357;51.948;6.132;2024-03-17T09:23:11;7.80;;;5.60;;
48578;SDS011;34357;51.948;6.132;2024-03-17T09:25:39;12.20;;;5.95;;
48578;SDS011;34357;51.948;6.132;2024-03-17T09:28:05;8.40;;;5.55;;
48578;SDS011;34357;51.948;6.132;2024-03-17T09:30:30;12.90;;;5.68;;
48578;SDS011;34357;51.948;6.132;2024-03-17T09:32:56;8.77;;;6.00;;
48578;SDS011;34357;51.948;6.132;2024-03-17T09:35:22;8.32;;;5.90;;
48578;SDS011;34357;51.948;6.132;2024-03-17T09:37:47;8.43;;;5.70;;
48578;SDS011;34357;51.948;6.132;2024-03-17T09:40:13;9.43;;;6.43;;
48578;SDS011;34357;51.948;6.132;2024-03-17T09:42:40;7.32;;;6.10;;
48578;SDS011;34357;51.948;6.132;2024-03-17T09:45:09;10.50;;;6.35;;
48578;SDS011;34357;51.948;6.132;2024-03-17T09:47:36;8.10;;;6.97;;
48578;SDS011;34357;51.948;6.132;2024-03-17T09:50:01;7.95;;;6.22;;
48578;SDS011;34357;51.948;6.132;2024-03-17T09:52:28;11.73;;;7.05;;
48578;SDS011;34357;51.948;6.132;2024-03-17T09:55:01;11.63;;;7.13;;
48578;SDS011;34357;51.948;6.132;2024-03-17T09:57:34;9.68;;;6.32;;
48578;SDS011;34357;51.948;6.132;2024-03-17T10:00:04;10.23;;;6.63;;
48578;SDS011;34357;51.948;6.132;2024-03-17T10:02:47;8.25;;;6.78;;
48578;SDS011;34357;51.948;6.132;2024-03-17T10:05:20;8.82;;;6.38;;
48578;SDS011;34357;51.948;6.132;2024-03-17T10:07:48;8.50;;;6.63;;
48578;SDS011;34357;51.948;6.132;2024-03-17T10:10:14;10.90;;;6.60;;
48578;SDS011;34357;51.948;6.132;2024-03-17T10:12:44;8.23;;;6.80;;
48578;SDS011;34357;51.948;6.132;2024-03-17T10:15:16;12.07;;;7.20;;
48578;SDS011;34357;51.948;6.132;2024-03-17T10:17:43;11.45;;;6.70;;
48578;SDS011;34357;51.948;6.132;2024-03-17T10:20:19;15.35;;;7.32;;
48578;SDS011;34357;51.948;6.132;2024-03-17T10:25:25;12.90;;;7.38;;
48578;SDS011;34357;51.948;6.132;2024-03-17T10:27:52;11.25;;;6.60;;
48578;SDS011;34357;51.948;6.132;2024-03-17T10:30:22;9.95;;;6.63;;
48578;SDS011;34357;51.948;6.132;2024-03-17T10:32:55;10.10;;;7.13;;
48578;SDS011;34357;51.948;6.132;2024-03-17T10:35:26;10.88;;;7.70;;
48578;SDS011;34357;51.948;6.132;2024-03-17T10:38:00;14.23;;;7.10;;
48578;SDS011;34357;51.948;6.132;2024-03-17T10:40:27;12.23;;;7.40;;
48578;SDS011;34357;51.948;6.132;2024-03-17T10:42:59;11.57;;;7.60;;
48578;SDS011;34357;51.948;6.132;2024-03-17T10:45:26;9.25;;;6.80;;
48578;SDS011;34357;51.948;6.132;2024-03-17T10:48:01;10.45;;;7.60;;
48578;SDS011;34357;51.948;6.132;2024-03-17T10:50:32;12.18;;;7.63;;
48578;SDS011;34357;51.948;6.132;2024-03-17T10:53:02;11.95;;;6.90;;
48578;SDS011;34357;51.948;6.132;2024-03-17T10:55:32;10.05;;;6.75;;
48578;SDS011;34357;51.948;6.132;2024-03-17T10:58:11;11.70;;;7.22;;
48578;SDS011;34357;51.948;6.132;2024-03-17T11:00:42;12.25;;;6.95;;
48578;SDS011;34357;51.948;6.132;2024-03-17T11:03:08;9.20;;;6.10;;
48578;SDS011;34357;51.948;6.132;2024-03-17T11:05:36;9.32;;;7.10;;
48578;SDS011;34357;51.948;6.132;2024-03-17T11:08:03;10.13;;;6.97;;
48578;SDS011;34357;51.948;6.132;2024-03-17T11:10:31;16.20;;;7.25;;
48578;SDS011;34357;51.948;6.132;2024-03-17T11:13:00;9.63;;;6.78;;
48578;SDS011;34357;51.948;6.132;2024-03-17T11:20:40;11.75;;;6.55;;
48578;SDS011;34357;51.948;6.132;2024-03-17T11:23:07;11.20;;;7.53;;
48578;SDS011;34357;51.948;6.132;2024-03-17T11:25:37;9.20;;;6.72;;
48578;SDS011;34357;51.948;6.132;2024-03-17T11:28:04;14.13;;;7.05;;
48578;SDS011;34357;51.948;6.132;2024-03-17T11:39:00;10.45;;;6.20;;
48578;SDS011;34357;51.948;6.132;2024-03-17T11:49:24;9.68;;;6.70;;
48578;SDS011;34357;51.948;6.132;2024-03-17T11:51:54;9.77;;;6.40;;
48578;SDS011;34357;51.948;6.132;2024-03-17T11:54:24;11.15;;;6.65;;
48578;SDS011;34357;51.948;6.132;2024-03-17T11:56:53;10.32;;;6.45;;
48578;SDS011;34357;51.948;6.132;2024-03-17T11:59:20;12.25;;;7.03;;
48578;SDS011;34357;51.948;6.132;2024-03-17T12:01:48;9.35;;;6.57;;
48578;SDS011;34357;51.948;6.132;2024-03-17T12:04:15;10.77;;;7.00;;
48578;SDS011;34357;51.948;6.132;2024-03-17T12:06:45;11.77;;;6.50;;
48578;SDS011;34357;51.948;6.132;2024-03-17T12:11:59;12.18;;;7.05;;
48578;SDS011;34357;51.948;6.132;2024-03-17T12:14:30;10.18;;;6.50;;
48578;SDS011;34357;51.948;6.132;2024-03-17T12:17:00;13.43;;;7.20;;
48578;SDS011;34357;51.948;6.132;2024-03-17T12:19:27;11.77;;;6.93;;
48578;SDS011;34357;51.948;6.132;2024-03-17T12:21:59;9.55;;;6.40;;
48578;SDS011;34357;51.948;6.132;2024-03-17T12:24:27;10.65;;;6.65;;
48578;SDS011;34357;51.948;6.132;2024-03-17T12:26:54;12.05;;;6.40;;
48578;SDS011;34357;51.948;6.132;2024-03-17T12:29:25;10.93;;;6.72;;
48578;SDS011;34357;51.948;6.132;2024-03-17T12:31:53;8.25;;;5.70;;
48578;SDS011;34357;51.948;6.132;2024-03-17T12:34:21;9.63;;;6.20;;
48578;SDS011;34357;51.948;6.132;2024-03-17T12:36:48;15.57;;;6.28;;
48578;SDS011;34357;51.948;6.132;2024-03-17T12:39:18;9.85;;;5.75;;
48578;SDS011;34357;51.948;6.132;2024-03-17T12:41:45;11.48;;;6.03;;
48578;SDS011;34357;51.948;6.132;2024-03-17T12:44:25;10.83;;;6.73;;
48578;SDS011;34357;51.948;6.132;2024-03-17T12:46:55;8.18;;;5.93;;
48578;SDS011;34357;51.948;6.132;2024-03-17T12:49:22;10.90;;;6.07;;
48578;SDS011;34357;51.948;6.132;2024-03-17T12:51:50;11.75;;;6.30;;
48578;SDS011;34357;51.948;6.132;2024-03-17T12:54:17;10.90;;;5.43;;
48578;SDS011;34357;51.948;6.132;2024-03-17T12:56:45;13.65;;;6.47;;
48578;SDS011;34357;51.948;6.132;2024-03-17T12:59:36;13.50;;;6.60;;
48578;SDS011;34357;51.948;6.132;2024-03-17T13:02:41;11.10;;;6.07;;
48578;SDS011;34357;51.948;6.132;2024-03-17T13:05:14;9.80;;;5.35;;
48578;SDS011;34357;51.948;6.132;2024-03-17T13:07:42;13.68;;;6.32;;
48578;SDS011;34357;51.948;6.132;2024-03-17T13:10:09;12.95;;;5.88;;
48578;SDS011;34357;51.948;6.132;2024-03-17T13:12:36;12.25;;;6.25;;
48578;SDS011;34357;51.948;6.132;2024-03-17T13:15:01;15.32;;;6.35;;
48578;SDS011;34357;51.948;6.132;2024-03-17T13:17:28;11.55;;;6.40;;
48578;SDS011;34357;51.948;6.132;2024-03-17T13:19:55;11.82;;;6.18;;
48578;SDS011;34357;51.948;6.132;2024-03-17T13:22:21;13.48;;;5.95;;
48578;SDS011;34357;51.948;6.132;2024-03-17T13:24:46;11.75;;;6.57;;
48578;SDS011;34357;51.948;6.132;2024-03-17T13:27:12;13.38;;;5.93;;
48578;SDS011;34357;51.948;6.132;2024-03-17T13:29:39;12.60;;;6.03;;
48578;SDS011;34357;51.948;6.132;2024-03-17T13:32:09;11.73;;;5.80;;
48578;SDS011;34357;51.948;6.132;2024-03-17T13:34:35;12.00;;;6.15;;
48578;SDS011;34357;51.948;6.132;2024-03-17T13:37:00;10.77;;;6.30;;
48578;SDS011;34357;51.948;6.132;2024-03-17T13:39:31;13.32;;;6.15;;
48578;SDS011;34357;51.948;6.132;2024-03-17T13:41:58;11.90;;;5.88;;
48578;SDS011;34357;51.948;6.132;2024-03-17T13:44:29;9.20;;;5.57;;
48578;SDS011;34357;51.948;6.132;2024-03-17T13:46:56;11.80;;;5.43;;
48578;SDS011;34357;51.948;6.132;2024-03-17T13:49:23;10.23;;;5.35;;
48578;SDS011;34357;51.948;6.132;2024-03-17T13:51:49;12.48;;;5.93;;
48578;SDS011;34357;51.948;6.132;2024-03-17T13:54:15;11.82;;;5.30;;
48578;SDS011;34357;51.948;6.132;2024-03-17T13:56:41;13.02;;;5.50;;
48578;SDS011;34357;51.948;6.132;2024-03-17T13:59:06;13.13;;;5.90;;
48578;SDS011;34357;51.948;6.132;2024-03-17T14:01:32;10.50;;;5.35;;
48578;SDS011;34357;51.948;6.132;2024-03-17T14:03:58;12.43;;;5.68;;
48578;SDS011;34357;51.948;6.132;2024-03-17T14:06:24;14.30;;;6.25;;
48578;SDS011;34357;51.948;6.132;2024-03-17T14:08:50;11.02;;;5.40;;
48578;SDS011;34357;51.948;6.132;2024-03-17T14:11:15;12.70;;;6.00;;
48578;SDS011;34357;51.948;6.132;2024-03-17T14:13:41;8.80;;;5.82;;
48578;SDS011;34357;51.948;6.132;2024-03-17T14:16:07;9.20;;;5.60;;
48578;SDS011;34357;51.948;6.132;2024-03-17T14:18:33;11.27;;;6.22;;
48578;SDS011;34357;51.948;6.132;2024-03-17T14:20:58;11.40;;;5.25;;
48578;SDS011;34357;51.948;6.132;2024-03-17T14:23:24;11.65;;;5.82;;
48578;SDS011;34357;51.948;6.132;2024-03-17T14:25:50;12.02;;;5.93;;
48578;SDS011;34357;51.948;6.132;2024-03-17T14:28:16;11.38;;;5.32;;
48578;SDS011;34357;51.948;6.132;2024-03-17T14:30:42;10.35;;;5.72;;
48578;SDS011;34357;51.948;6.132;2024-03-17T14:33:07;8.88;;;5.82;;
48578;SDS011;34357;51.948;6.132;2024-03-17T14:35:33;12.57;;;5.95;;
48578;SDS011;34357;51.948;6.132;2024-03-17T14:37:59;8.30;;;5.85;;
48578;SDS011;34357;51.948;6.132;2024-03-17T14:40:26;10.43;;;5.82;;
48578;SDS011;34357;51.948;6.132;2024-03-17T14:42:54;15.93;;;6.78;;
48578;SDS011;34357;51.948;6.132;2024-03-17T14:45:23;14.15;;;5.95;;
48578;SDS011;34357;51.948;6.132;2024-03-17T14:47:48;13.68;;;6.75;;
48578;SDS011;34357;51.948;6.132;2024-03-17T14:50:14;12.30;;;7.07;;
48578;SDS011;34357;51.948;6.132;2024-03-17T14:52:44;10.13;;;6.45;;
48578;SDS011;34357;51.948;6.132;2024-03-17T14:55:10;10.48;;;6.68;;
48578;SDS011;34357;51.948;6.132;2024-03-17T14:57:39;9.63;;;5.90;;
48578;SDS011;34357;51.948;6.132;2024-03-17T15:00:08;16.73;;;7.15;;
48578;SDS011;34357;51.948;6.132;2024-03-17T15:02:41;11.40;;;7.15;;
48578;SDS011;34357;51.948;6.132;2024-03-17T15:05:08;14.80;;;6.53;;
48578;SDS011;34357;51.948;6.132;2024-03-17T15:07:34;16.48;;;7.05;;